Darstellungsparameter: Aktuell verwendete Einstellungen:
Skalierung der Graphiken ... ?
xyx+y,   Skalierungsfaktor:      Skalierung: Modus: x, Faktor: 1
Darstellungszeitraum ... ?
Vom - - bis: - -   Zeitraum: 27.01.2011 - 28.01.2011
Min/Max/Avg-Anzeige ... ?
Zeige MMA aktuell
Zeige MMA Monat
Zeige MMA alles
Zeige --A aktuell
Zeige --A Monat
Zeige --A alles
Keine MMA-Anzeige
MMA:
Average (ber die Originaldaten)
MMA-Basis: 27.01.2011 - 28.01.2011
Quicknavigation für Darstellung... ?
Tage:      1T, 2T, 3T, 5T -1T -2T -3T -5T +1T +2T +3T +5T
Wochen: 1W, 2W, 3W -1W -2W -3W +1W +2W +3W
Monate: 1M, 3M, 6M -1M -3M -6M +1M +3M +6M
Jahre:    1J, 3J, 5J, 10J -1J -3J -5J -10J +1J +3J +5J +10J
Nutze für die Darstellung ... ?
Originaldaten oder Mittelwerte auf ...
Stundenbasis Tagesbasis Wochenbasis
Monatsbasis Jahresbasis      Datenbasis: Original-Daten
Darstellen als:
Statistik (Auto) Statistik J:M      Darstellung:
Zur Graphik,    zurück zur Übersicht aller Sensoren.
 
Tabellarische Datenbersicht: ?
 
Sensor: Nr:Datum:Temp:Abs-Feuchte:Windchill:Wind:
Aussen-T/F 1 27-01-2011 00:04:03 -0.8 C 3.94 g/m*3 -0.8 C 0 km/h
2 27-01-2011 00:16:03 -1.1 C 3.86 g/m*3 -1.1 C 0 km/h
3 27-01-2011 00:28:03 -1.1 C 3.86 g/m*3 -1.1 C 0 km/h
4 27-01-2011 00:40:03 -1.7 C 3.66 g/m*3 -1.7 C 0 km/h
5 27-01-2011 00:52:03 -1.5 C 3.75 g/m*3 -1.5 C 0 km/h
6 27-01-2011 01:04:03 -1.5 C 3.75 g/m*3 -1.5 C 0 km/h
7 27-01-2011 01:16:03 -1.7 C 3.7 g/m*3 -1.7 C 0 km/h
8 27-01-2011 01:28:03 -1.7 C 3.7 g/m*3 -1.7 C 0 km/h
9 27-01-2011 01:40:03 -1.9 C 3.65 g/m*3 -1.9 C 0 km/h
10 27-01-2011 01:52:03 -2 C 3.63 g/m*3 -2 C 0 km/h
11 27-01-2011 02:04:03 -2.3 C 3.55 g/m*3 -2.3 C 0 km/h
12 27-01-2011 02:16:03 -2.3 C 3.55 g/m*3 -2.3 C 0 km/h
13 27-01-2011 02:28:03 -2.5 C 3.5 g/m*3 -2.5 C 0 km/h
14 27-01-2011 02:40:03 -2.6 C 3.52 g/m*3 -2.6 C 0 km/h
15 27-01-2011 02:52:03 -2.9 C 3.4 g/m*3 -2.9 C 0 km/h
16 27-01-2011 03:04:03 -3 C 3.38 g/m*3 -3 C 0 km/h
17 27-01-2011 03:16:03 -3.4 C 3.28 g/m*3 -3.4 C 0 km/h
18 27-01-2011 03:28:03 -3.2 C 3.37 g/m*3 -3.2 C 0 km/h
19 27-01-2011 03:40:04 -3.5 C 3.3 g/m*3 -3.5 C 0 km/h
20 27-01-2011 03:52:04 -3.7 C 3.25 g/m*3 -3.7 C 0 km/h
21 27-01-2011 04:04:04 -2.7 C 3.53 g/m*3 -2.7 C 0 km/h
22 27-01-2011 04:16:04 -2.4 C 3.61 g/m*3 -2.4 C 0 km/h
23 27-01-2011 04:28:04 -2.2 C 3.7 g/m*3 -2.2 C 0 km/h
24 27-01-2011 04:40:04 -1.9 C 3.78 g/m*3 -1.9 C 0 km/h
25 27-01-2011 04:52:04 -1.8 C 3.8 g/m*3 -1.8 C 0 km/h
Sensor: Nr:Datum:Temp:Abs-Feuchte:Windchill:Wind:
Aussen-T/F 26 27-01-2011 05:04:04 -1.6 C 3.86 g/m*3 -1.6 C 0 km/h
27 27-01-2011 05:16:04 -1.6 C 3.9 g/m*3 -1.6 C 0 km/h
28 27-01-2011 05:28:04 -1.5 C 3.93 g/m*3 -1.5 C 0 km/h
29 27-01-2011 05:40:04 -1.5 C 3.93 g/m*3 -1.5 C 0 km/h
30 27-01-2011 05:52:04 -1.6 C 3.9 g/m*3 -1.6 C 0 km/h
31 27-01-2011 06:04:04 -1.6 C 3.9 g/m*3 -1.6 C 0 km/h
32 27-01-2011 06:16:04 -1.2 C 4.01 g/m*3 -1.2 C 0 km/h
33 27-01-2011 06:28:04 -1.3 C 3.98 g/m*3 -1.3 C 0 km/h
34 27-01-2011 06:40:04 -1.4 C 3.96 g/m*3 -1.4 C 0 km/h
35 27-01-2011 06:52:04 -1.4 C 3.96 g/m*3 -1.4 C 0 km/h
36 27-01-2011 07:04:01 -1.4 C 3.96 g/m*3 -1.4 C 0 km/h
37 27-01-2011 07:16:02 -1.3 C 3.98 g/m*3 -1.3 C 0 km/h
38 27-01-2011 07:28:03 -1.3 C 3.98 g/m*3 -1.3 C 0 km/h
39 27-01-2011 07:40:01 -1.3 C 3.98 g/m*3 -1.3 C 0 km/h
40 27-01-2011 07:52:02 -1.3 C 3.98 g/m*3 -1.3 C 0 km/h
41 27-01-2011 08:04:01 -1.3 C 3.98 g/m*3 -1.3 C 0 km/h
42 27-01-2011 08:16:01 -1.3 C 3.98 g/m*3 -1.3 C 0 km/h
43 27-01-2011 08:28:01 -1.3 C 3.98 g/m*3 -1.3 C 0 km/h
44 27-01-2011 08:40:02 -1.1 C 4.09 g/m*3 -1.1 C 0 km/h
45 27-01-2011 08:52:02 -0.9 C 4.14 g/m*3 -0.9 C 0 km/h
46 27-01-2011 09:04:02 -0.7 C 4.2 g/m*3 -0.7 C 0 km/h
47 27-01-2011 09:16:02 -0.4 C 4.29 g/m*3 -0.4 C 0 km/h
48 27-01-2011 09:28:02 -0.2 C 4.35 g/m*3 -0.2 C 0 km/h
49 27-01-2011 09:40:02 0 C 4.41 g/m*3 0 C 0 km/h
50 27-01-2011 09:52:01 0.1 C 4.39 g/m*3 0.1 C 0 km/h
Sensor: Nr:Datum:Temp:Abs-Feuchte:Windchill:Wind:
Aussen-T/F 51 27-01-2011 10:04:02 0.3 C 4.45 g/m*3 0.3 C 0 km/h
52 27-01-2011 10:16:01 0.6 C 4.44 g/m*3 0.6 C 0 km/h
53 27-01-2011 10:28:02 1 C 4.36 g/m*3 1 C 0 km/h
54 27-01-2011 10:40:01 1.1 C 4.18 g/m*3 1.1 C 0 km/h
55 27-01-2011 10:52:02 1.3 C 3.97 g/m*3 1.3 C 0 km/h
56 27-01-2011 11:04:02 1.5 C 3.81 g/m*3 1.5 C 0 km/h
57 27-01-2011 11:16:02 1.7 C 3.7 g/m*3 1.7 C 0 km/h
58 27-01-2011 11:28:02 1.9 C 3.59 g/m*3 1.9 C 0 km/h
59 27-01-2011 11:40:02 2.1 C 3.58 g/m*3 2.1 C 0 km/h
60 27-01-2011 11:52:02 2.1 C 3.47 g/m*3 2.1 C 0 km/h
61 27-01-2011 12:04:02 2.2 C 3.44 g/m*3 2.2 C 0 km/h
62 27-01-2011 12:16:01 2.5 C 3.45 g/m*3 2.5 C 0 km/h
63 27-01-2011 12:28:01 2.3 C 3.23 g/m*3 2.3 C 0 km/h
64 27-01-2011 12:40:02 2.6 C 3.3 g/m*3 2.6 C 0 km/h
65 27-01-2011 12:52:02 2.6 C 3.24 g/m*3 2.6 C 0 km/h
66 27-01-2011 13:04:02 2.6 C 3.24 g/m*3 2.6 C 0 km/h
67 27-01-2011 13:16:02 2.4 C 3.08 g/m*3 2.4 C 0 km/h
68 27-01-2011 13:28:02 2.8 C 3.11 g/m*3 2.8 C 0 km/h
69 27-01-2011 13:40:02 2.9 C 3.07 g/m*3 2.9 C 0 km/h
70 27-01-2011 13:52:02 2.5 C 2.99 g/m*3 2.5 C 0 km/h
71 27-01-2011 14:04:02 2.1 C 2.97 g/m*3 2.1 C 0 km/h
72 27-01-2011 14:16:02 2.2 C 2.99 g/m*3 2.2 C 0 km/h
73 27-01-2011 14:28:02 2.4 C 2.85 g/m*3 2.4 C 0 km/h
74 27-01-2011 14:40:02 2.7 C 2.97 g/m*3 2.7 C 0 km/h
75 27-01-2011 14:52:01 2.6 C 2.95 g/m*3 2.6 C 0 km/h
Sensor: Nr:Datum:Temp:Abs-Feuchte:Windchill:Wind:
Aussen-T/F 76 27-01-2011 15:04:01 2 C 2.78 g/m*3 2 C 0 km/h
77 27-01-2011 15:16:02 2 C 2.83 g/m*3 2 C 0 km/h
78 27-01-2011 15:28:02 2 C 2.83 g/m*3 2 C 0 km/h
79 27-01-2011 15:40:01 1.8 C 2.85 g/m*3 1.8 C 0 km/h
80 27-01-2011 15:52:03 1.6 C 2.76 g/m*3 1.6 C 0 km/h
81 27-01-2011 16:04:02 1.5 C 2.74 g/m*3 1.5 C 0 km/h
82 27-01-2011 16:16:02 1.3 C 2.7 g/m*3 1.3 C 0 km/h
83 27-01-2011 16:28:02 1.4 C 2.83 g/m*3 1.4 C 0 km/h
84 27-01-2011 16:40:02 1 C 2.7 g/m*3 1 C 0 km/h
85 27-01-2011 16:52:02 0.7 C 2.75 g/m*3 0.7 C 0 km/h
86 27-01-2011 17:04:02 0.5 C 2.76 g/m*3 0.5 C 0 km/h
87 27-01-2011 17:16:02 0.4 C 2.69 g/m*3 0.4 C 0 km/h
88 27-01-2011 17:28:03 0.2 C 2.75 g/m*3 0.2 C 0 km/h
89 27-01-2011 17:40:02 0.1 C 2.83 g/m*3 0.1 C 0 km/h
90 27-01-2011 17:52:03 0.1 C 2.73 g/m*3 0.1 C 0 km/h
91 27-01-2011 18:04:03 0 C 2.76 g/m*3 0 C 0 km/h
92 27-01-2011 18:16:03 0.2 C 2.75 g/m*3 0.2 C 0 km/h
93 27-01-2011 18:28:04 0 C 2.76 g/m*3 0 C 0 km/h
94 27-01-2011 18:40:02 -0.1 C 2.79 g/m*3 -0.1 C 0 km/h
95 27-01-2011 18:52:03 -0.1 C 2.79 g/m*3 -0.1 C 0 km/h
96 27-01-2011 19:04:02 0 C 2.76 g/m*3 0 C 0 km/h
97 27-01-2011 19:16:02 0 C 2.86 g/m*3 0 C 0 km/h
98 27-01-2011 19:28:02 -0.2 C 2.82 g/m*3 -0.2 C 0 km/h
99 27-01-2011 19:40:02 -0.2 C 2.82 g/m*3 -0.2 C 0 km/h
100 27-01-2011 19:52:02 -0.4 C 2.83 g/m*3 -0.4 C 0 km/h
Sensor: Nr:Datum:Temp:Abs-Feuchte:Windchill:Wind:
Aussen-T/F 101 27-01-2011 20:04:02 -0.3 C 2.85 g/m*3 -0.3 C 0 km/h
102 27-01-2011 20:16:02 -0.3 C 2.85 g/m*3 -0.3 C 0 km/h
103 27-01-2011 20:28:03 -0.3 C 2.85 g/m*3 -0.3 C 0 km/h
104 27-01-2011 20:40:02 -0.4 C 2.87 g/m*3 -0.4 C 0 km/h
105 27-01-2011 20:52:02 -0.4 C 2.87 g/m*3 -0.4 C 0 km/h
106 27-01-2011 21:04:01 -0.7 C 2.91 g/m*3 -0.7 C 0 km/h
107 27-01-2011 21:16:02 -0.6 C 2.88 g/m*3 -0.6 C 0 km/h
108 27-01-2011 21:28:02 -0.9 C 2.87 g/m*3 -0.9 C 0 km/h
109 27-01-2011 21:40:01 -1 C 2.76 g/m*3 -1 C 0 km/h
110 27-01-2011 21:53:03 -1.4 C 2.77 g/m*3 -1.4 C 0 km/h
111 27-01-2011 22:05:03 -1.6 C 2.77 g/m*3 -1.6 C 0 km/h
112 27-01-2011 22:17:03 -1.7 C 2.76 g/m*3 -1.7 C 0 km/h
113 27-01-2011 22:29:03 -1.1 C 2.92 g/m*3 -1.1 C 0 km/h
114 27-01-2011 22:41:03 -0.9 C 2.91 g/m*3 -0.9 C 0 km/h
115 27-01-2011 22:53:03 -0.7 C 2.86 g/m*3 -0.7 C 0 km/h
116 27-01-2011 23:05:03 -0.7 C 2.82 g/m*3 -0.7 C 0 km/h
117 27-01-2011 23:17:03 -0.9 C 2.78 g/m*3 -0.9 C 0 km/h
118 27-01-2011 23:29:03 -1.1 C 2.78 g/m*3 -1.1 C 0 km/h
119 27-01-2011 23:41:03 -1.2 C 2.76 g/m*3 -1.2 C 0 km/h
120 27-01-2011 23:53:04 -1.1 C 2.78 g/m*3 -1.1 C 0 km/h
121 28-01-2011 00:05:04 -1.3 C 2.74 g/m*3 -1.3 C 0 km/h
122 28-01-2011 00:17:04 -1.4 C 2.73 g/m*3 -1.4 C 0 km/h
123 28-01-2011 00:29:04 -1.5 C 2.75 g/m*3 -1.5 C 0 km/h
124 28-01-2011 00:41:04 -1.4 C 2.81 g/m*3 -1.4 C 0 km/h
125 28-01-2011 00:53:04 -1.1 C 2.78 g/m*3 -1.1 C 0 km/h
Sensor: Nr:Datum:Temp:Abs-Feuchte:Windchill:Wind:
Aussen-T/F 126 28-01-2011 01:05:04 -1 C 2.71 g/m*3 -1 C 0 km/h
127 28-01-2011 01:17:04 -1.2 C 2.67 g/m*3 -1.2 C 0 km/h
128 28-01-2011 01:29:04 -1.4 C 2.64 g/m*3 -1.4 C 0 km/h
129 28-01-2011 01:41:04 -1.3 C 2.66 g/m*3 -1.3 C 0 km/h
130 28-01-2011 01:53:04 -1.3 C 2.66 g/m*3 -1.3 C 0 km/h
131 28-01-2011 02:05:04 -1.3 C 2.66 g/m*3 -1.3 C 0 km/h
132 28-01-2011 02:17:04 -1.3 C 2.66 g/m*3 -1.3 C 0 km/h
133 28-01-2011 02:29:04 -1.8 C 2.65 g/m*3 -1.8 C 0 km/h
134 28-01-2011 02:41:04 -1.4 C 2.73 g/m*3 -1.4 C 0 km/h
135 28-01-2011 02:53:04 -1.3 C 2.74 g/m*3 -1.3 C 0 km/h
136 28-01-2011 03:05:04 -1.3 C 2.74 g/m*3 -1.3 C 0 km/h
137 28-01-2011 03:17:04 -1.2 C 2.76 g/m*3 -1.2 C 0 km/h
138 28-01-2011 03:29:04 -1.2 C 2.81 g/m*3 -1.2 C 0 km/h
139 28-01-2011 03:41:04 -1.1 C 2.78 g/m*3 -1.1 C 0 km/h
140 28-01-2011 03:53:05 -1.1 C 2.83 g/m*3 -1.1 C 0 km/h
141 28-01-2011 04:05:05 -1 C 2.85 g/m*3 -1 C 0 km/h
142 28-01-2011 04:17:05 -1.1 C 2.83 g/m*3 -1.1 C 0 km/h
143 28-01-2011 04:29:05 -1 C 2.8 g/m*3 -1 C 0 km/h
144 28-01-2011 04:41:05 -1.1 C 2.78 g/m*3 -1.1 C 0 km/h
145 28-01-2011 04:53:05 -1 C 2.85 g/m*3 -1 C 0 km/h
146 28-01-2011 05:05:05 -1 C 2.89 g/m*3 -1 C 0 km/h
147 28-01-2011 05:17:05 -1 C 2.85 g/m*3 -1 C 0 km/h
148 28-01-2011 05:29:05 -0.9 C 2.82 g/m*3 -0.9 C 0 km/h
149 28-01-2011 05:41:05 -1 C 2.8 g/m*3 -1 C 0 km/h
150 28-01-2011 05:53:05 -1 C 2.8 g/m*3 -1 C 0 km/h
Sensor: Nr:Datum:Temp:Abs-Feuchte:Windchill:Wind:
Aussen-T/F 151 28-01-2011 06:05:05 -0.9 C 2.78 g/m*3 -0.9 C 0 km/h
152 28-01-2011 06:17:05 -1 C 2.76 g/m*3 -1 C 0 km/h
153 28-01-2011 06:29:05 -1 C 2.76 g/m*3 -1 C 0 km/h
154 28-01-2011 06:41:05 -1 C 2.76 g/m*3 -1 C 0 km/h
155 28-01-2011 06:53:05 -1 C 2.8 g/m*3 -1 C 0 km/h
156 28-01-2011 07:05:02 -1 C 2.8 g/m*3 -1 C 0 km/h
157 28-01-2011 07:17:03 -1 C 2.8 g/m*3 -1 C 0 km/h
158 28-01-2011 07:29:03 -1.1 C 2.78 g/m*3 -1.1 C 0 km/h
159 28-01-2011 07:41:02 -1.1 C 2.78 g/m*3 -1.1 C 0 km/h
160 28-01-2011 07:53:02 -1.1 C 2.78 g/m*3 -1.1 C 0 km/h
161 28-01-2011 08:05:01 -1.6 C 2.69 g/m*3 -1.6 C 0 km/h
162 28-01-2011 08:17:02 -2 C 2.7 g/m*3 -2 C 0 km/h
163 28-01-2011 08:29:03 -2.4 C 2.7 g/m*3 -2.4 C 0 km/h
164 28-01-2011 08:41:01 -2 C 2.78 g/m*3 -2 C 0 km/h
165 28-01-2011 08:53:02 -2.5 C 2.73 g/m*3 -2.5 C 0 km/h
166 28-01-2011 09:05:02 -1.9 C 2.89 g/m*3 -1.9 C 0 km/h
167 28-01-2011 09:17:02 -1.5 C 2.88 g/m*3 -1.5 C 0 km/h
168 28-01-2011 09:29:02 -1.1 C 2.83 g/m*3 -1.1 C 0 km/h
169 28-01-2011 09:41:03 -1.1 C 2.74 g/m*3 -1.1 C 0 km/h
170 28-01-2011 09:53:02 -1.4 C 2.64 g/m*3 -1.4 C 0 km/h
171 28-01-2011 10:05:02 -0.9 C 2.73 g/m*3 -0.9 C 0 km/h
172 28-01-2011 10:17:02 -0.6 C 2.7 g/m*3 -0.6 C 0 km/h
173 28-01-2011 10:29:02 -0.6 C 2.65 g/m*3 -0.6 C 0 km/h
174 28-01-2011 10:41:02 -0.6 C 2.65 g/m*3 -0.6 C 0 km/h
175 28-01-2011 10:53:02 -0.3 C 2.71 g/m*3 -0.3 C 0 km/h
Sensor: Nr:Datum:Temp:Abs-Feuchte:Windchill:Wind:
Aussen-T/F 176 28-01-2011 11:05:03 0.1 C 2.73 g/m*3 0.1 C 0 km/h
177 28-01-2011 11:17:02 -0.1 C 2.65 g/m*3 -0.1 C 0 km/h
178 28-01-2011 11:29:02 -0.2 C 2.68 g/m*3 -0.2 C 0 km/h
179 28-01-2011 11:41:02 0.3 C 2.72 g/m*3 0.3 C 0 km/h
180 28-01-2011 11:53:02 0.6 C 2.73 g/m*3 0.6 C 0 km/h
181 28-01-2011 12:05:02 0.6 C 2.68 g/m*3 0.6 C 0 km/h
182 28-01-2011 12:17:01 0.7 C 2.69 g/m*3 0.7 C 0 km/h
183 28-01-2011 12:29:01 0.4 C 2.69 g/m*3 0.4 C 0 km/h
184 28-01-2011 12:41:02 1 C 2.7 g/m*3 1 C 0 km/h
185 28-01-2011 12:53:02 0.9 C 2.73 g/m*3 0.9 C 0 km/h
186 28-01-2011 13:05:02 0.9 C 2.73 g/m*3 0.9 C 0 km/h
187 28-01-2011 13:17:01 1 C 2.7 g/m*3 1 C 0 km/h
188 28-01-2011 13:29:01 1 C 2.7 g/m*3 1 C 0 km/h
189 28-01-2011 13:41:02 0.9 C 2.73 g/m*3 0.9 C 0 km/h
190 28-01-2011 13:53:01 1 C 2.75 g/m*3 1 C 0 km/h
191 28-01-2011 14:05:02 1 C 2.7 g/m*3 1 C 0 km/h
192 28-01-2011 14:17:02 1.3 C 2.75 g/m*3 1.3 C 0 km/h
193 28-01-2011 14:29:02 1.3 C 2.75 g/m*3 1.3 C 0 km/h
194 28-01-2011 14:41:02 1.2 C 2.74 g/m*3 1.2 C 0 km/h
195 28-01-2011 14:53:02 1.3 C 2.81 g/m*3 1.3 C 0 km/h
196 28-01-2011 15:05:01 1.3 C 2.86 g/m*3 1.3 C 0 km/h
197 28-01-2011 15:17:02 1.2 C 2.74 g/m*3 1.2 C 0 km/h
198 28-01-2011 15:29:02 1.3 C 2.81 g/m*3 1.3 C 0 km/h
199 28-01-2011 15:41:01 1.2 C 2.79 g/m*3 1.2 C 0 km/h
200 28-01-2011 15:53:02 1.3 C 2.81 g/m*3 1.3 C 0 km/h
Sensor: Nr:Datum:Temp:Abs-Feuchte:Windchill:Wind:
Aussen-T/F 201 28-01-2011 16:05:01 0.8 C 2.87 g/m*3 0.8 C 0 km/h
202 28-01-2011 16:17:01 0.7 C 2.85 g/m*3 0.7 C 0 km/h
203 28-01-2011 16:29:01 0.6 C 2.88 g/m*3 0.6 C 0 km/h
204 28-01-2011 16:41:02 0.3 C 2.87 g/m*3 0.3 C 0 km/h
205 28-01-2011 16:53:02 -0.2 C 2.82 g/m*3 -0.2 C 0 km/h
206 28-01-2011 17:05:02 -0.5 C 2.9 g/m*3 -0.5 C 0 km/h
207 28-01-2011 17:17:02 -0.9 C 2.91 g/m*3 -0.9 C 0 km/h
208 28-01-2011 17:29:02 -1.6 C 2.9 g/m*3 -1.6 C 0 km/h
209 28-01-2011 17:41:03 -1.8 C 2.99 g/m*3 -1.8 C 0 km/h
210 28-01-2011 17:53:02 -2.1 C 3.06 g/m*3 -2.1 C 0 km/h
211 28-01-2011 18:05:02 -2.4 C 3.03 g/m*3 -2.4 C 0 km/h
212 28-01-2011 18:17:02 -2.5 C 3.05 g/m*3 -2.5 C 0 km/h
213 28-01-2011 18:29:02 -2.2 C 3.16 g/m*3 -2.2 C 0 km/h
214 28-01-2011 18:41:02 -2.5 C 3.09 g/m*3 -2.5 C 0 km/h
215 28-01-2011 18:53:02 -2.6 C 3.11 g/m*3 -2.6 C 0 km/h
216 28-01-2011 19:05:02 -2.5 C 3.13 g/m*3 -2.5 C 0 km/h
217 28-01-2011 19:17:02 -2.4 C 3.16 g/m*3 -2.4 C 0 km/h
218 28-01-2011 19:29:02 -2.4 C 3.11 g/m*3 -2.4 C 0 km/h
219 28-01-2011 19:41:02 -3 C 2.99 g/m*3 -3 C 0 km/h
220 28-01-2011 19:53:02 -3.1 C 3 g/m*3 -3.1 C 0 km/h
221 28-01-2011 20:05:02 -3.3 C 3 g/m*3 -3.3 C 0 km/h
222 28-01-2011 20:17:02 -3.5 C 2.99 g/m*3 -3.5 C 0 km/h
223 28-01-2011 20:29:02 -3.6 C 3.01 g/m*3 -3.6 C 0 km/h
224 28-01-2011 20:41:02 -3.7 C 2.99 g/m*3 -3.7 C 0 km/h
225 28-01-2011 20:53:02 -3.5 C 3.07 g/m*3 -3.5 C 0 km/h
Sensor: Nr:Datum:Temp:Abs-Feuchte:Windchill:Wind:
Aussen-T/F 226 28-01-2011 21:05:01 -3.6 C 3.05 g/m*3 -3.6 C 0 km/h
227 28-01-2011 21:18:03 -3.8 C 3.01 g/m*3 -3.8 C 0 km/h
228 28-01-2011 21:30:03 -3.8 C 3.04 g/m*3 -3.8 C 0 km/h
229 28-01-2011 21:42:03 -4 C 3 g/m*3 -4 C 0 km/h
230 28-01-2011 21:54:03 -4 C 3 g/m*3 -4 C 0 km/h
231 28-01-2011 22:06:03 -4.2 C 2.99 g/m*3 -4.2 C 0 km/h
232 28-01-2011 22:18:03 -4.4 C 2.95 g/m*3 -4.4 C 0 km/h
233 28-01-2011 22:30:03 -4.1 C 3.01 g/m*3 -4.1 C 0 km/h
234 28-01-2011 22:42:03 -4.4 C 2.95 g/m*3 -4.4 C 0 km/h
235 28-01-2011 22:54:03 -3.8 C 3.12 g/m*3 -3.8 C 0 km/h
236 28-01-2011 23:06:03 -4.2 C 2.99 g/m*3 -4.2 C 0 km/h
237 28-01-2011 23:18:03 -4.2 C 2.99 g/m*3 -4.2 C 0 km/h
238 28-01-2011 23:30:03 -3.8 C 3.08 g/m*3 -3.8 C 0 km/h
239 28-01-2011 23:42:03 -3.6 C 3.12 g/m*3 -3.6 C 0 km/h
240 28-01-2011 23:54:03 -3.5 C 3.15 g/m*3 -3.5 C 0 km/h

Legende:
   Min
   Max


Maximal/Minimal-Werte vom 27.01.2011 - 28.01.2011

Sensor Min Max Avg
Temp
(Aussen-T/F)
-4.4 °C
28-01-2011  22:18:03
2.9 °C
27-01-2011  13:40:02
-0.78 °C
Abs-Feuchte
(Aussen-T/F)
2.64 g/m*3
28-01-2011  01:29:04
4.45 g/m*3
27-01-2011  10:04:02
3.09 g/m*3
Windchill
(Aussen-T/F)
-4.4 C
28-01-2011  22:18:03
2.9 C
27-01-2011  13:40:02
-0.78 C

Die Daten stammen von einer Davis Vantage Pro 2 Wetter-Station und werden unter Linux mit der Software wview2wettercgi und aufbereitet. Alle Angaben erfolgen ohne Gewähr für ihre Vollständigkeit oder Richtigkeit.
Kontakt: Rainer Krienke krienke@uni-koblenz.de . Meine Webseiten an der Uni Koblenz oder privat.
Version: $Revision: 0.78 $